sensor_id;sensor_type;location;lat;lon;timestamp;P1;durP1;ratioP1;P2;durP2;ratioP2
77876;SDS011;67251;50.844;7.978;2023-02-28T00:00:43;13.57;;;4.28;;
77876;SDS011;67251;50.844;7.978;2023-02-28T00:03:09;18.92;;;5.13;;
77876;SDS011;67251;50.844;7.978;2023-02-28T00:05:34;12.40;;;4.45;;
77876;SDS011;67251;50.844;7.978;2023-02-28T00:08:00;23.60;;;7.18;;
77876;SDS011;67251;50.844;7.978;2023-02-28T00:10:26;24.05;;;6.55;;
77876;SDS011;67251;50.844;7.978;2023-02-28T00:12:54;34.42;;;7.57;;
77876;SDS011;67251;50.844;7.978;2023-02-28T00:15:24;122.72;;;26.38;;
77876;SDS011;67251;50.844;7.978;2023-02-28T00:17:49;64.22;;;14.70;;
77876;SDS011;67251;50.844;7.978;2023-02-28T00:20:15;33.58;;;7.70;;
77876;SDS011;67251;50.844;7.978;2023-02-28T00:22:42;6.25;;;2.10;;
77876;SDS011;67251;50.844;7.978;2023-02-28T00:25:10;5.88;;;1.50;;
77876;SDS011;67251;50.844;7.978;2023-02-28T00:27:40;13.25;;;3.33;;
77876;SDS011;67251;50.844;7.978;2023-02-28T00:30:10;8.70;;;2.53;;
77876;SDS011;67251;50.844;7.978;2023-02-28T00:32:39;2.55;;;1.17;;
77876;SDS011;67251;50.844;7.978;2023-02-28T00:35:05;4.43;;;1.45;;
77876;SDS011;67251;50.844;7.978;2023-02-28T00:37:31;4.72;;;1.67;;
77876;SDS011;67251;50.844;7.978;2023-02-28T00:39:57;3.83;;;1.25;;
77876;SDS011;67251;50.844;7.978;2023-02-28T00:42:23;4.40;;;1.30;;
77876;SDS011;67251;50.844;7.978;2023-02-28T00:44:48;3.80;;;1.63;;
77876;SDS011;67251;50.844;7.978;2023-02-28T00:47:14;5.20;;;1.58;;
77876;SDS011;67251;50.844;7.978;2023-02-28T00:49:39;5.93;;;1.70;;
77876;SDS011;67251;50.844;7.978;2023-02-28T00:52:04;3.05;;;1.30;;
77876;SDS011;67251;50.844;7.978;2023-02-28T00:54:30;6.70;;;1.50;;
77876;SDS011;67251;50.844;7.978;2023-02-28T00:56:55;4.05;;;1.70;;
77876;SDS011;67251;50.844;7.978;2023-02-28T00:59:21;5.18;;;2.05;;
77876;SDS011;67251;50.844;7.978;2023-02-28T01:01:46;3.92;;;1.77;;
77876;SDS011;67251;50.844;7.978;2023-02-28T01:04:12;3.50;;;1.63;;
77876;SDS011;67251;50.844;7.978;2023-02-28T01:06:38;5.35;;;1.92;;
77876;SDS011;67251;50.844;7.978;2023-02-28T01:09:04;7.32;;;2.00;;
77876;SDS011;67251;50.844;7.978;2023-02-28T01:11:31;9.63;;;3.40;;
77876;SDS011;67251;50.844;7.978;2023-02-28T01:13:57;8.50;;;2.58;;
77876;SDS011;67251;50.844;7.978;2023-02-28T01:16:23;8.38;;;2.40;;
77876;SDS011;67251;50.844;7.978;2023-02-28T01:18:48;7.43;;;2.90;;
77876;SDS011;67251;50.844;7.978;2023-02-28T01:21:15;6.90;;;2.58;;
77876;SDS011;67251;50.844;7.978;2023-02-28T01:23:42;6.72;;;2.08;;
77876;SDS011;67251;50.844;7.978;2023-02-28T01:26:12;4.20;;;1.75;;
77876;SDS011;67251;50.844;7.978;2023-02-28T01:28:48;7.80;;;1.75;;
77876;SDS011;67251;50.844;7.978;2023-02-28T01:31:14;4.13;;;1.75;;
77876;SDS011;67251;50.844;7.978;2023-02-28T01:33:40;3.90;;;1.50;;
77876;SDS011;67251;50.844;7.978;2023-02-28T01:36:10;4.07;;;2.22;;
77876;SDS011;67251;50.844;7.978;2023-02-28T01:38:37;4.63;;;1.65;;
77876;SDS011;67251;50.844;7.978;2023-02-28T01:41:03;4.65;;;2.13;;
77876;SDS011;67251;50.844;7.978;2023-02-28T01:43:30;4.80;;;1.40;;
77876;SDS011;67251;50.844;7.978;2023-02-28T01:46:16;4.95;;;2.03;;
77876;SDS011;67251;50.844;7.978;2023-02-28T01:48:42;3.00;;;1.33;;
77876;SDS011;67251;50.844;7.978;2023-02-28T01:54:35;3.92;;;1.38;;
77876;SDS011;67251;50.844;7.978;2023-02-28T01:59:35;4.25;;;1.85;;
77876;SDS011;67251;50.844;7.978;2023-02-28T02:02:15;3.10;;;1.38;;
77876;SDS011;67251;50.844;7.978;2023-02-28T02:04:49;2.92;;;1.50;;
77876;SDS011;67251;50.844;7.978;2023-02-28T02:07:18;2.60;;;1.10;;
77876;SDS011;67251;50.844;7.978;2023-02-28T02:09:44;5.82;;;1.42;;
77876;SDS011;67251;50.844;7.978;2023-02-28T02:12:14;5.05;;;2.10;;
77876;SDS011;67251;50.844;7.978;2023-02-28T02:15:01;3.03;;;1.05;;
77876;SDS011;67251;50.844;7.978;2023-02-28T02:20:16;3.55;;;1.20;;
77876;SDS011;67251;50.844;7.978;2023-02-28T02:26:13;3.83;;;1.35;;
77876;SDS011;67251;50.844;7.978;2023-02-28T02:28:52;6.40;;;1.60;;
77876;SDS011;67251;50.844;7.978;2023-02-28T02:34:34;3.20;;;1.20;;
77876;SDS011;67251;50.844;7.978;2023-02-28T02:37:37;2.67;;;1.13;;
77876;SDS011;67251;50.844;7.978;2023-02-28T02:40:08;3.05;;;1.25;;
77876;SDS011;67251;50.844;7.978;2023-02-28T02:45:13;4.53;;;1.55;;
77876;SDS011;67251;50.844;7.978;2023-02-28T02:47:53;4.60;;;1.77;;
77876;SDS011;67251;50.844;7.978;2023-02-28T02:50:26;5.95;;;1.83;;
77876;SDS011;67251;50.844;7.978;2023-02-28T02:55:26;7.00;;;1.65;;
77876;SDS011;67251;50.844;7.978;2023-02-28T02:57:59;3.30;;;1.50;;
77876;SDS011;67251;50.844;7.978;2023-02-28T03:00:30;4.68;;;1.17;;
77876;SDS011;67251;50.844;7.978;2023-02-28T03:03:06;3.63;;;1.30;;
77876;SDS011;67251;50.844;7.978;2023-02-28T03:05:48;3.20;;;1.10;;
77876;SDS011;67251;50.844;7.978;2023-02-28T03:08:15;5.00;;;1.90;;
77876;SDS011;67251;50.844;7.978;2023-02-28T03:10:42;3.95;;;1.10;;
77876;SDS011;67251;50.844;7.978;2023-02-28T03:13:21;2.83;;;1.00;;
77876;SDS011;67251;50.844;7.978;2023-02-28T03:24:35;3.70;;;1.20;;
77876;SDS011;67251;50.844;7.978;2023-02-28T03:27:17;3.30;;;1.27;;
77876;SDS011;67251;50.844;7.978;2023-02-28T03:30:03;3.55;;;1.27;;
77876;SDS011;67251;50.844;7.978;2023-02-28T03:36:21;3.17;;;1.30;;
77876;SDS011;67251;50.844;7.978;2023-02-28T03:38:40;3.42;;;1.38;;
77876;SDS011;67251;50.844;7.978;2023-02-28T03:44:22;3.05;;;1.25;;
77876;SDS011;67251;50.844;7.978;2023-02-28T03:46:55;3.70;;;1.55;;
77876;SDS011;67251;50.844;7.978;2023-02-28T03:49:27;3.10;;;1.10;;
77876;SDS011;67251;50.844;7.978;2023-02-28T03:52:00;3.10;;;1.45;;
77876;SDS011;67251;50.844;7.978;2023-02-28T03:54:30;5.07;;;1.80;;
77876;SDS011;67251;50.844;7.978;2023-02-28T03:57:06;3.95;;;1.52;;
77876;SDS011;67251;50.844;7.978;2023-02-28T03:59:43;2.92;;;1.13;;
77876;SDS011;67251;50.844;7.978;2023-02-28T04:02:12;3.67;;;0.98;;
77876;SDS011;67251;50.844;7.978;2023-02-28T04:04:38;2.75;;;1.02;;
77876;SDS011;67251;50.844;7.978;2023-02-28T04:07:07;4.05;;;1.38;;
77876;SDS011;67251;50.844;7.978;2023-02-28T04:09:34;2.90;;;1.10;;
77876;SDS011;67251;50.844;7.978;2023-02-28T04:11:59;3.88;;;1.38;;
77876;SDS011;67251;50.844;7.978;2023-02-28T04:14:26;3.60;;;1.48;;
77876;SDS011;67251;50.844;7.978;2023-02-28T04:16:51;4.60;;;1.38;;
77876;SDS011;67251;50.844;7.978;2023-02-28T04:19:17;3.00;;;1.10;;
77876;SDS011;67251;50.844;7.978;2023-02-28T04:21:45;3.65;;;1.20;;
77876;SDS011;67251;50.844;7.978;2023-02-28T04:24:14;4.10;;;1.73;;
77876;SDS011;67251;50.844;7.978;2023-02-28T04:26:42;3.00;;;1.23;;
77876;SDS011;67251;50.844;7.978;2023-02-28T04:29:09;2.83;;;1.17;;
77876;SDS011;67251;50.844;7.978;2023-02-28T04:31:36;4.93;;;1.63;;
77876;SDS011;67251;50.844;7.978;2023-02-28T04:34:01;3.10;;;1.40;;
77876;SDS011;67251;50.844;7.978;2023-02-28T04:36:27;4.43;;;1.58;;
77876;SDS011;67251;50.844;7.978;2023-02-28T04:38:53;4.38;;;1.30;;
77876;SDS011;67251;50.844;7.978;2023-02-28T04:41:19;4.47;;;1.40;;
77876;SDS011;67251;50.844;7.978;2023-02-28T04:43:45;4.55;;;1.60;;
77876;SDS011;67251;50.844;7.978;2023-02-28T04:46:11;3.10;;;1.33;;
77876;SDS011;67251;50.844;7.978;2023-02-28T04:48:37;3.13;;;1.52;;
77876;SDS011;67251;50.844;7.978;2023-02-28T04:51:10;3.38;;;1.17;;
77876;SDS011;67251;50.844;7.978;2023-02-28T04:53:38;4.20;;;1.83;;
77876;SDS011;67251;50.844;7.978;2023-02-28T04:56:05;5.20;;;1.70;;
77876;SDS011;67251;50.844;7.978;2023-02-28T04:58:32;3.95;;;1.77;;
77876;SDS011;67251;50.844;7.978;2023-02-28T05:01:05;5.78;;;1.88;;
77876;SDS011;67251;50.844;7.978;2023-02-28T05:03:39;4.30;;;1.70;;
77876;SDS011;67251;50.844;7.978;2023-02-28T05:06:08;3.38;;;1.20;;
77876;SDS011;67251;50.844;7.978;2023-02-28T05:08:34;4.75;;;1.13;;
77876;SDS011;67251;50.844;7.978;2023-02-28T05:11:00;2.70;;;0.95;;
77876;SDS011;67251;50.844;7.978;2023-02-28T05:13:26;2.85;;;0.80;;
77876;SDS011;67251;50.844;7.978;2023-02-28T05:15:52;2.92;;;1.60;;
77876;SDS011;67251;50.844;7.978;2023-02-28T05:18:17;4.15;;;1.50;;
77876;SDS011;67251;50.844;7.978;2023-02-28T05:20:43;1.02;;;0.47;;
77876;SDS011;67251;50.844;7.978;2023-02-28T05:23:08;2.88;;;0.90;;
77876;SDS011;67251;50.844;7.978;2023-02-28T05:25:37;4.82;;;2.60;;
77876;SDS011;67251;50.844;7.978;2023-02-28T05:28:03;4.72;;;2.35;;
77876;SDS011;67251;50.844;7.978;2023-02-28T05:30:29;3.45;;;1.13;;
77876;SDS011;67251;50.844;7.978;2023-02-28T05:32:55;3.45;;;1.27;;
77876;SDS011;67251;50.844;7.978;2023-02-28T05:35:20;4.75;;;1.67;;
77876;SDS011;67251;50.844;7.978;2023-02-28T05:37:46;6.05;;;1.83;;
77876;SDS011;67251;50.844;7.978;2023-02-28T05:40:12;7.57;;;1.98;;
77876;SDS011;67251;50.844;7.978;2023-02-28T05:42:38;5.60;;;2.15;;
77876;SDS011;67251;50.844;7.978;2023-02-28T05:45:04;4.65;;;2.13;;
77876;SDS011;67251;50.844;7.978;2023-02-28T05:47:29;5.55;;;2.30;;
77876;SDS011;67251;50.844;7.978;2023-02-28T05:49:56;5.68;;;2.53;;
77876;SDS011;67251;50.844;7.978;2023-02-28T05:52:21;6.03;;;1.80;;
77876;SDS011;67251;50.844;7.978;2023-02-28T05:54:46;7.32;;;1.90;;
77876;SDS011;67251;50.844;7.978;2023-02-28T05:57:13;4.05;;;1.45;;
77876;SDS011;67251;50.844;7.978;2023-02-28T05:59:38;4.13;;;1.80;;
77876;SDS011;67251;50.844;7.978;2023-02-28T06:02:05;3.83;;;1.40;;
77876;SDS011;67251;50.844;7.978;2023-02-28T06:04:35;4.90;;;1.70;;
77876;SDS011;67251;50.844;7.978;2023-02-28T06:07:00;3.75;;;1.55;;
77876;SDS011;67251;50.844;7.978;2023-02-28T06:09:26;4.25;;;1.42;;
77876;SDS011;67251;50.844;7.978;2023-02-28T06:11:52;7.57;;;1.85;;
77876;SDS011;67251;50.844;7.978;2023-02-28T06:14:18;4.45;;;1.58;;
77876;SDS011;67251;50.844;7.978;2023-02-28T06:16:45;5.25;;;1.70;;
77876;SDS011;67251;50.844;7.978;2023-02-28T06:19:10;4.82;;;2.22;;
77876;SDS011;67251;50.844;7.978;2023-02-28T06:21:36;4.65;;;1.45;;
77876;SDS011;67251;50.844;7.978;2023-02-28T06:24:01;3.85;;;1.73;;
77876;SDS011;67251;50.844;7.978;2023-02-28T06:26:28;6.95;;;2.35;;
77876;SDS011;67251;50.844;7.978;2023-02-28T06:28:53;9.40;;;2.38;;
77876;SDS011;67251;50.844;7.978;2023-02-28T06:31:20;3.47;;;1.50;;
77876;SDS011;67251;50.844;7.978;2023-02-28T06:33:46;5.57;;;2.08;;
77876;SDS011;67251;50.844;7.978;2023-02-28T06:36:13;6.95;;;2.33;;
77876;SDS011;67251;50.844;7.978;2023-02-28T06:38:39;5.57;;;1.65;;
77876;SDS011;67251;50.844;7.978;2023-02-28T06:41:06;3.85;;;1.75;;
77876;SDS011;67251;50.844;7.978;2023-02-28T06:43:33;4.20;;;1.23;;
77876;SDS011;67251;50.844;7.978;2023-02-28T06:46:01;4.28;;;1.70;;
77876;SDS011;67251;50.844;7.978;2023-02-28T06:48:28;6.05;;;2.55;;
77876;SDS011;67251;50.844;7.978;2023-02-28T06:51:03;5.10;;;2.00;;
77876;SDS011;67251;50.844;7.978;2023-02-28T06:53:28;4.60;;;1.42;;
77876;SDS011;67251;50.844;7.978;2023-02-28T06:55:54;3.13;;;1.70;;
77876;SDS011;67251;50.844;7.978;2023-02-28T06:58:19;4.38;;;1.35;;
77876;SDS011;67251;50.844;7.978;2023-02-28T07:00:44;4.95;;;2.17;;
77876;SDS011;67251;50.844;7.978;2023-02-28T07:03:11;5.85;;;1.98;;
77876;SDS011;67251;50.844;7.978;2023-02-28T07:05:38;4.05;;;1.70;;
77876;SDS011;67251;50.844;7.978;2023-02-28T07:08:04;3.80;;;1.73;;
77876;SDS011;67251;50.844;7.978;2023-02-28T07:10:31;4.10;;;1.92;;
77876;SDS011;67251;50.844;7.978;2023-02-28T07:12:57;7.97;;;2.60;;
77876;SDS011;67251;50.844;7.978;2023-02-28T07:15:23;5.85;;;2.05;;
77876;SDS011;67251;50.844;7.978;2023-02-28T07:17:49;4.28;;;1.77;;
77876;SDS011;67251;50.844;7.978;2023-02-28T07:20:15;7.63;;;2.35;;
77876;SDS011;67251;50.844;7.978;2023-02-28T07:22:41;6.63;;;2.90;;
77876;SDS011;67251;50.844;7.978;2023-02-28T07:25:06;8.85;;;2.90;;
77876;SDS011;67251;50.844;7.978;2023-02-28T07:27:32;8.85;;;2.88;;
77876;SDS011;67251;50.844;7.978;2023-02-28T07:29:59;7.55;;;3.10;;
77876;SDS011;67251;50.844;7.978;2023-02-28T07:32:26;10.68;;;3.45;;
77876;SDS011;67251;50.844;7.978;2023-02-28T07:34:52;9.02;;;3.88;;
77876;SDS011;67251;50.844;7.978;2023-02-28T07:37:18;8.27;;;3.70;;
77876;SDS011;67251;50.844;7.978;2023-02-28T07:39:43;6.18;;;3.22;;
77876;SDS011;67251;50.844;7.978;2023-02-28T07:42:11;7.95;;;3.38;;
77876;SDS011;67251;50.844;7.978;2023-02-28T07:44:40;13.65;;;5.15;;
77876;SDS011;67251;50.844;7.978;2023-02-28T07:47:07;9.57;;;4.68;;
77876;SDS011;67251;50.844;7.978;2023-02-28T07:49:34;8.80;;;3.58;;
77876;SDS011;67251;50.844;7.978;2023-02-28T07:52:03;7.63;;;3.00;;
77876;SDS011;67251;50.844;7.978;2023-02-28T07:54:30;7.43;;;2.67;;
77876;SDS011;67251;50.844;7.978;2023-02-28T07:56:55;6.55;;;1.90;;
77876;SDS011;67251;50.844;7.978;2023-02-28T07:59:21;4.60;;;1.75;;
77876;SDS011;67251;50.844;7.978;2023-02-28T08:01:46;3.42;;;1.55;;
77876;SDS011;67251;50.844;7.978;2023-02-28T08:04:11;5.93;;;1.85;;
77876;SDS011;67251;50.844;7.978;2023-02-28T08:06:37;6.95;;;1.48;;
77876;SDS011;67251;50.844;7.978;2023-02-28T08:09:02;3.28;;;1.10;;
77876;SDS011;67251;50.844;7.978;2023-02-28T08:11:28;5.72;;;1.63;;
77876;SDS011;67251;50.844;7.978;2023-02-28T08:13:54;3.03;;;1.20;;
77876;SDS011;67251;50.844;7.978;2023-02-28T08:16:19;4.32;;;1.13;;
77876;SDS011;67251;50.844;7.978;2023-02-28T08:18:47;3.88;;;1.20;;
77876;SDS011;67251;50.844;7.978;2023-02-28T08:21:14;2.55;;;0.98;;
77876;SDS011;67251;50.844;7.978;2023-02-28T08:23:39;2.97;;;1.02;;
77876;SDS011;67251;50.844;7.978;2023-02-28T08:26:05;2.92;;;1.00;;
77876;SDS011;67251;50.844;7.978;2023-02-28T08:28:31;2.35;;;0.90;;
77876;SDS011;67251;50.844;7.978;2023-02-28T08:30:57;4.35;;;1.17;;
77876;SDS011;67251;50.844;7.978;2023-02-28T08:33:23;4.07;;;1.10;;
77876;SDS011;67251;50.844;7.978;2023-02-28T08:35:51;5.93;;;1.38;;
77876;SDS011;67251;50.844;7.978;2023-02-28T08:38:21;3.28;;;1.27;;
77876;SDS011;67251;50.844;7.978;2023-02-28T08:40:47;1.85;;;0.80;;
77876;SDS011;67251;50.844;7.978;2023-02-28T08:43:12;3.85;;;1.17;;
77876;SDS011;67251;50.844;7.978;2023-02-28T08:45:39;3.47;;;1.20;;
77876;SDS011;67251;50.844;7.978;2023-02-28T08:48:04;3.10;;;1.23;;
77876;SDS011;67251;50.844;7.978;2023-02-28T08:50:29;1.77;;;0.70;;
77876;SDS011;67251;50.844;7.978;2023-02-28T08:52:55;3.22;;;1.23;;
77876;SDS011;67251;50.844;7.978;2023-02-28T08:55:20;3.00;;;1.05;;
77876;SDS011;67251;50.844;7.978;2023-02-28T08:57:46;1.77;;;0.70;;
77876;SDS011;67251;50.844;7.978;2023-02-28T09:00:11;1.88;;;0.60;;
77876;SDS011;67251;50.844;7.978;2023-02-28T09:02:38;2.85;;;1.20;;
77876;SDS011;67251;50.844;7.978;2023-02-28T09:05:05;3.13;;;0.90;;
77876;SDS011;67251;50.844;7.978;2023-02-28T09:07:30;3.50;;;1.00;;
77876;SDS011;67251;50.844;7.978;2023-02-28T09:09:56;2.80;;;1.00;;
77876;SDS011;67251;50.844;7.978;2023-02-28T09:12:26;3.40;;;1.30;;
77876;SDS011;67251;50.844;7.978;2023-02-28T09:14:52;3.28;;;1.10;;
77876;SDS011;67251;50.844;7.978;2023-02-28T09:17:18;4.30;;;1.08;;
77876;SDS011;67251;50.844;7.978;2023-02-28T09:19:44;2.25;;;1.00;;
77876;SDS011;67251;50.844;7.978;2023-02-28T09:22:10;3.45;;;1.10;;
77876;SDS011;67251;50.844;7.978;2023-02-28T09:24:36;3.05;;;1.17;;
77876;SDS011;67251;50.844;7.978;2023-02-28T09:27:02;1.75;;;0.77;;
77876;SDS011;67251;50.844;7.978;2023-02-28T09:29:28;3.60;;;1.00;;
77876;SDS011;67251;50.844;7.978;2023-02-28T09:31:53;2.78;;;0.90;;
77876;SDS011;67251;50.844;7.978;2023-02-28T09:34:19;3.28;;;1.20;;
77876;SDS011;67251;50.844;7.978;2023-02-28T09:36:45;1.65;;;0.70;;
77876;SDS011;67251;50.844;7.978;2023-02-28T09:39:10;1.65;;;0.70;;
77876;SDS011;67251;50.844;7.978;2023-02-28T09:41:41;3.28;;;1.08;;
77876;SDS011;67251;50.844;7.978;2023-02-28T09:47:31;3.10;;;1.30;;
77876;SDS011;67251;50.844;7.978;2023-02-28T09:52:51;3.63;;;1.15;;
77876;SDS011;67251;50.844;7.978;2023-02-28T09:55:28;3.45;;;1.42;;
77876;SDS011;67251;50.844;7.978;2023-02-28T09:58:02;2.75;;;1.00;;
77876;SDS011;67251;50.844;7.978;2023-02-28T10:00:36;3.03;;;1.17;;
77876;SDS011;67251;50.844;7.978;2023-02-28T10:05:59;4.93;;;1.55;;
77876;SDS011;67251;50.844;7.978;2023-02-28T10:08:43;3.80;;;1.30;;
77876;SDS011;67251;50.844;7.978;2023-02-28T10:11:13;4.22;;;1.20;;
77876;SDS011;67251;50.844;7.978;2023-02-28T10:16:14;4.22;;;1.40;;
77876;SDS011;67251;50.844;7.978;2023-02-28T10:18:46;2.78;;;1.10;;
77876;SDS011;67251;50.844;7.978;2023-02-28T10:21:18;3.90;;;1.48;;
77876;SDS011;67251;50.844;7.978;2023-02-28T10:23:48;4.07;;;1.30;;
77876;SDS011;67251;50.844;7.978;2023-02-28T10:26:16;2.88;;;1.20;;
77876;SDS011;67251;50.844;7.978;2023-02-28T10:28:42;3.13;;;1.27;;
77876;SDS011;67251;50.844;7.978;2023-02-28T10:31:11;3.88;;;1.30;;
77876;SDS011;67251;50.844;7.978;2023-02-28T10:33:42;2.53;;;0.98;;
77876;SDS011;67251;50.844;7.978;2023-02-28T10:36:08;5.03;;;1.50;;
77876;SDS011;67251;50.844;7.978;2023-02-28T10:38:38;3.80;;;1.40;;
77876;SDS011;67251;50.844;7.978;2023-02-28T10:41:08;4.50;;;1.70;;
77876;SDS011;67251;50.844;7.978;2023-02-28T10:43:39;3.42;;;1.27;;
77876;SDS011;67251;50.844;7.978;2023-02-28T10:48:42;2.47;;;0.98;;
77876;SDS011;67251;50.844;7.978;2023-02-28T10:51:10;2.65;;;0.80;;
77876;SDS011;67251;50.844;7.978;2023-02-28T10:56:15;3.80;;;1.27;;
77876;SDS011;67251;50.844;7.978;2023-02-28T10:59:02;4.05;;;1.30;;
77876;SDS011;67251;50.844;7.978;2023-02-28T11:01:47;3.95;;;1.50;;
77876;SDS011;67251;50.844;7.978;2023-02-28T11:06:44;2.47;;;1.08;;
77876;SDS011;67251;50.844;7.978;2023-02-28T11:09:29;3.65;;;1.55;;
77876;SDS011;67251;50.844;7.978;2023-02-28T11:11:57;4.72;;;1.30;;
77876;SDS011;67251;50.844;7.978;2023-02-28T11:14:30;4.13;;;1.40;;
77876;SDS011;67251;50.844;7.978;2023-02-28T11:17:02;3.35;;;1.42;;
77876;SDS011;67251;50.844;7.978;2023-02-28T11:19:51;3.45;;;1.25;;
77876;SDS011;67251;50.844;7.978;2023-02-28T11:24:47;3.47;;;1.50;;
77876;SDS011;67251;50.844;7.978;2023-02-28T11:32:49;2.45;;;1.10;;
77876;SDS011;67251;50.844;7.978;2023-02-28T11:35:26;4.22;;;1.70;;
77876;SDS011;67251;50.844;7.978;2023-02-28T11:37:59;4.35;;;1.50;;
77876;SDS011;67251;50.844;7.978;2023-02-28T11:40:28;4.03;;;1.52;;
77876;SDS011;67251;50.844;7.978;2023-02-28T11:43:06;3.50;;;1.30;;
77876;SDS011;67251;50.844;7.978;2023-02-28T11:51:21;5.65;;;2.10;;
77876;SDS011;67251;50.844;7.978;2023-02-28T11:56:54;3.70;;;1.27;;
77876;SDS011;67251;50.844;7.978;2023-02-28T12:10:30;4.20;;;1.52;;
77876;SDS011;67251;50.844;7.978;2023-02-28T12:13:26;5.43;;;2.45;;
77876;SDS011;67251;50.844;7.978;2023-02-28T12:18:51;4.70;;;1.80;;
77876;SDS011;67251;50.844;7.978;2023-02-28T12:24:48;5.45;;;2.13;;
77876;SDS011;67251;50.844;7.978;2023-02-28T12:27:20;5.07;;;2.22;;
77876;SDS011;67251;50.844;7.978;2023-02-28T12:34:57;6.10;;;2.40;;
77876;SDS011;67251;50.844;7.978;2023-02-28T12:37:30;4.30;;;1.92;;
77876;SDS011;67251;50.844;7.978;2023-02-28T12:40:04;4.35;;;1.80;;
77876;SDS011;67251;50.844;7.978;2023-02-28T12:42:51;5.28;;;2.40;;
77876;SDS011;67251;50.844;7.978;2023-02-28T12:45:24;3.75;;;1.17;;
77876;SDS011;67251;50.844;7.978;2023-02-28T12:47:55;4.07;;;1.63;;
77876;SDS011;67251;50.844;7.978;2023-02-28T12:50:25;4.05;;;1.48;;
77876;SDS011;67251;50.844;7.978;2023-02-28T12:55:57;6.05;;;2.47;;
77876;SDS011;67251;50.844;7.978;2023-02-28T12:58:31;3.22;;;1.58;;
77876;SDS011;67251;50.844;7.978;2023-02-28T13:01:24;3.80;;;1.95;;
77876;SDS011;67251;50.844;7.978;2023-02-28T13:04:06;5.68;;;2.30;;
77876;SDS011;67251;50.844;7.978;2023-02-28T13:06:38;4.10;;;1.88;;
77876;SDS011;67251;50.844;7.978;2023-02-28T13:09:17;4.90;;;2.13;;
77876;SDS011;67251;50.844;7.978;2023-02-28T13:14:30;4.00;;;1.67;;
77876;SDS011;67251;50.844;7.978;2023-02-28T13:19:55;4.97;;;2.45;;
77876;SDS011;67251;50.844;7.978;2023-02-28T13:22:21;6.47;;;2.10;;
77876;SDS011;67251;50.844;7.978;2023-02-28T13:25:00;3.85;;;1.52;;
77876;SDS011;67251;50.844;7.978;2023-02-28T13:27:34;5.70;;;2.42;;
77876;SDS011;67251;50.844;7.978;2023-02-28T13:30:49;5.53;;;1.95;;
77876;SDS011;67251;50.844;7.978;2023-02-28T13:36:00;5.03;;;2.10;;
77876;SDS011;67251;50.844;7.978;2023-02-28T13:46:34;4.18;;;1.77;;
77876;SDS011;67251;50.844;7.978;2023-02-28T13:51:47;4.53;;;1.60;;
77876;SDS011;67251;50.844;7.978;2023-02-28T13:54:35;4.07;;;1.63;;
77876;SDS011;67251;50.844;7.978;2023-02-28T13:57:35;2.97;;;1.33;;
77876;SDS011;67251;50.844;7.978;2023-02-28T14:06:31;6.88;;;2.33;;
77876;SDS011;67251;50.844;7.978;2023-02-28T14:08:57;5.05;;;1.98;;
77876;SDS011;67251;50.844;7.978;2023-02-28T14:11:32;3.65;;;1.58;;
77876;SDS011;67251;50.844;7.978;2023-02-28T14:14:00;4.50;;;2.03;;
77876;SDS011;67251;50.844;7.978;2023-02-28T14:16:28;4.47;;;2.20;;
77876;SDS011;67251;50.844;7.978;2023-02-28T14:25:11;4.55;;;2.15;;
77876;SDS011;67251;50.844;7.978;2023-02-28T14:33:35;3.67;;;1.48;;
77876;SDS011;67251;50.844;7.978;2023-02-28T14:38:59;6.43;;;2.30;;
77876;SDS011;67251;50.844;7.978;2023-02-28T14:41:31;4.13;;;1.88;;
77876;SDS011;67251;50.844;7.978;2023-02-28T14:44:03;4.13;;;2.13;;
77876;SDS011;67251;50.844;7.978;2023-02-28T14:46:46;5.40;;;2.40;;
77876;SDS011;67251;50.844;7.978;2023-02-28T14:49:21;4.60;;;1.52;;
77876;SDS011;67251;50.844;7.978;2023-02-28T14:52:11;4.80;;;2.70;;
77876;SDS011;67251;50.844;7.978;2023-02-28T14:54:41;5.65;;;1.98;;
77876;SDS011;67251;50.844;7.978;2023-02-28T14:57:18;5.10;;;2.03;;
77876;SDS011;67251;50.844;7.978;2023-02-28T14:59:56;5.00;;;1.98;;
77876;SDS011;67251;50.844;7.978;2023-02-28T15:02:23;5.97;;;1.92;;
77876;SDS011;67251;50.844;7.978;2023-02-28T15:05:00;6.68;;;2.22;;
77876;SDS011;67251;50.844;7.978;2023-02-28T15:07:34;3.33;;;1.58;;
77876;SDS011;67251;50.844;7.978;2023-02-28T15:10:07;3.10;;;1.35;;
77876;SDS011;67251;50.844;7.978;2023-02-28T15:12:54;5.10;;;2.63;;
77876;SDS011;67251;50.844;7.978;2023-02-28T15:15:21;4.82;;;1.85;;
77876;SDS011;67251;50.844;7.978;2023-02-28T15:18:00;4.82;;;1.88;;
77876;SDS011;67251;50.844;7.978;2023-02-28T15:20:30;5.45;;;2.72;;
77876;SDS011;67251;50.844;7.978;2023-02-28T15:22:58;6.20;;;2.60;;
77876;SDS011;67251;50.844;7.978;2023-02-28T15:25:26;5.75;;;2.53;;
77876;SDS011;67251;50.844;7.978;2023-02-28T15:27:53;4.78;;;1.80;;
77876;SDS011;67251;50.844;7.978;2023-02-28T15:30:21;4.00;;;1.70;;
77876;SDS011;67251;50.844;7.978;2023-02-28T15:35:41;3.75;;;2.05;;
77876;SDS011;67251;50.844;7.978;2023-02-28T15:38:39;6.32;;;2.42;;
77876;SDS011;67251;50.844;7.978;2023-02-28T15:40:59;3.60;;;1.52;;
77876;SDS011;67251;50.844;7.978;2023-02-28T15:43:28;4.38;;;1.83;;
77876;SDS011;67251;50.844;7.978;2023-02-28T15:45:59;4.88;;;2.40;;
77876;SDS011;67251;50.844;7.978;2023-02-28T15:48:35;4.93;;;1.90;;
77876;SDS011;67251;50.844;7.978;2023-02-28T15:51:22;5.13;;;2.35;;
77876;SDS011;67251;50.844;7.978;2023-02-28T15:53:50;4.28;;;2.00;;
77876;SDS011;67251;50.844;7.978;2023-02-28T15:57:06;4.93;;;1.98;;
77876;SDS011;67251;50.844;7.978;2023-02-28T15:59:26;5.75;;;2.33;;
77876;SDS011;67251;50.844;7.978;2023-02-28T16:02:15;5.57;;;2.30;;
77876;SDS011;67251;50.844;7.978;2023-02-28T16:07:23;4.70;;;1.88;;
77876;SDS011;67251;50.844;7.978;2023-02-28T16:09:49;10.35;;;2.80;;
77876;SDS011;67251;50.844;7.978;2023-02-28T16:12:15;4.63;;;1.13;;
77876;SDS011;67251;50.844;7.978;2023-02-28T16:14:40;6.60;;;2.67;;
77876;SDS011;67251;50.844;7.978;2023-02-28T16:17:18;7.85;;;2.45;;
77876;SDS011;67251;50.844;7.978;2023-02-28T16:19:46;5.72;;;2.67;;
77876;SDS011;67251;50.844;7.978;2023-02-28T16:22:12;7.43;;;2.35;;
77876;SDS011;67251;50.844;7.978;2023-02-28T16:24:37;4.75;;;2.10;;
77876;SDS011;67251;50.844;7.978;2023-02-28T16:27:04;7.20;;;3.10;;
77876;SDS011;67251;50.844;7.978;2023-02-28T16:29:31;5.55;;;2.58;;
77876;SDS011;67251;50.844;7.978;2023-02-28T16:31:59;6.88;;;2.97;;
77876;SDS011;67251;50.844;7.978;2023-02-28T16:34:26;5.82;;;2.30;;
77876;SDS011;67251;50.844;7.978;2023-02-28T16:36:51;5.00;;;2.65;;
77876;SDS011;67251;50.844;7.978;2023-02-28T16:39:17;5.40;;;2.50;;
77876;SDS011;67251;50.844;7.978;2023-02-28T16:41:45;5.25;;;2.53;;
77876;SDS011;67251;50.844;7.978;2023-02-28T16:44:14;7.57;;;3.08;;
77876;SDS011;67251;50.844;7.978;2023-02-28T16:46:51;5.40;;;2.40;;
77876;SDS011;67251;50.844;7.978;2023-02-28T16:49:16;6.85;;;2.35;;
77876;SDS011;67251;50.844;7.978;2023-02-28T16:51:42;6.32;;;3.13;;
77876;SDS011;67251;50.844;7.978;2023-02-28T16:54:09;8.80;;;3.17;;
77876;SDS011;67251;50.844;7.978;2023-02-28T16:56:34;11.95;;;3.25;;
77876;SDS011;67251;50.844;7.978;2023-02-28T16:59:00;6.53;;;2.47;;
77876;SDS011;67251;50.844;7.978;2023-02-28T17:01:26;7.72;;;3.42;;
77876;SDS011;67251;50.844;7.978;2023-02-28T17:03:52;12.48;;;5.57;;
77876;SDS011;67251;50.844;7.978;2023-02-28T17:06:28;8.00;;;3.40;;
77876;SDS011;67251;50.844;7.978;2023-02-28T17:08:55;8.48;;;3.25;;
77876;SDS011;67251;50.844;7.978;2023-02-28T17:11:21;16.20;;;6.78;;
77876;SDS011;67251;50.844;7.978;2023-02-28T17:13:47;6.60;;;3.35;;
77876;SDS011;67251;50.844;7.978;2023-02-28T17:16:15;10.00;;;4.75;;
77876;SDS011;67251;50.844;7.978;2023-02-28T17:18:47;6.55;;;3.10;;
77876;SDS011;67251;50.844;7.978;2023-02-28T17:21:14;11.80;;;4.53;;
77876;SDS011;67251;50.844;7.978;2023-02-28T17:23:41;15.48;;;5.47;;
77876;SDS011;67251;50.844;7.978;2023-02-28T17:26:06;12.73;;;4.90;;